sensor_id;sensor_type;location;lat;lon;timestamp;P1;durP1;ratioP1;P2;durP2;ratioP2
12059;SDS011;6091;51.432;6.880;2024-02-26T00:01:32;0.60;;;0.60;;
12059;SDS011;6091;51.432;6.880;2024-02-26T00:04:00;0.50;;;0.50;;
12059;SDS011;6091;51.432;6.880;2024-02-26T00:06:29;0.50;;;0.50;;
12059;SDS011;6091;51.432;6.880;2024-02-26T00:08:58;0.57;;;0.57;;
12059;SDS011;6091;51.432;6.880;2024-02-26T00:11:25;0.60;;;0.60;;
12059;SDS011;6091;51.432;6.880;2024-02-26T00:13:52;0.60;;;0.60;;
12059;SDS011;6091;51.432;6.880;2024-02-26T00:16:20;0.60;;;0.60;;
12059;SDS011;6091;51.432;6.880;2024-02-26T00:18:47;0.85;;;0.60;;
12059;SDS011;6091;51.432;6.880;2024-02-26T00:21:16;0.77;;;0.77;;
12059;SDS011;6091;51.432;6.880;2024-02-26T00:23:43;0.60;;;0.60;;
12059;SDS011;6091;51.432;6.880;2024-02-26T00:26:10;0.55;;;0.55;;
12059;SDS011;6091;51.432;6.880;2024-02-26T00:28:38;0.98;;;0.88;;
12059;SDS011;6091;51.432;6.880;2024-02-26T00:31:05;0.60;;;0.60;;
12059;SDS011;6091;51.432;6.880;2024-02-26T00:33:32;0.50;;;0.50;;
12059;SDS011;6091;51.432;6.880;2024-02-26T00:35:59;0.60;;;0.60;;
12059;SDS011;6091;51.432;6.880;2024-02-26T00:38:26;0.55;;;0.55;;
12059;SDS011;6091;51.432;6.880;2024-02-26T00:40:54;0.68;;;0.68;;
12059;SDS011;6091;51.432;6.880;2024-02-26T00:43:21;0.50;;;0.50;;
12059;SDS011;6091;51.432;6.880;2024-02-26T00:45:49;0.60;;;0.60;;
12059;SDS011;6091;51.432;6.880;2024-02-26T00:48:18;0.50;;;0.50;;
12059;SDS011;6091;51.432;6.880;2024-02-26T00:50:45;0.65;;;0.65;;
12059;SDS011;6091;51.432;6.880;2024-02-26T00:53:12;0.80;;;0.80;;
12059;SDS011;6091;51.432;6.880;2024-02-26T00:55:39;0.50;;;0.50;;
12059;SDS011;6091;51.432;6.880;2024-02-26T00:58:06;0.60;;;0.60;;
12059;SDS011;6091;51.432;6.880;2024-02-26T01:00:33;0.57;;;0.57;;
12059;SDS011;6091;51.432;6.880;2024-02-26T01:03:00;0.60;;;0.60;;
12059;SDS011;6091;51.432;6.880;2024-02-26T01:05:29;0.60;;;0.60;;
12059;SDS011;6091;51.432;6.880;2024-02-26T01:07:56;0.65;;;0.65;;
12059;SDS011;6091;51.432;6.880;2024-02-26T01:10:23;0.60;;;0.60;;
12059;SDS011;6091;51.432;6.880;2024-02-26T01:12:50;0.60;;;0.60;;
12059;SDS011;6091;51.432;6.880;2024-02-26T01:15:18;0.70;;;0.70;;
12059;SDS011;6091;51.432;6.880;2024-02-26T01:17:50;0.60;;;0.60;;
12059;SDS011;6091;51.432;6.880;2024-02-26T01:20:17;0.60;;;0.60;;
12059;SDS011;6091;51.432;6.880;2024-02-26T01:22:45;0.63;;;0.63;;
12059;SDS011;6091;51.432;6.880;2024-02-26T01:25:13;0.68;;;0.60;;
12059;SDS011;6091;51.432;6.880;2024-02-26T01:27:42;0.50;;;0.50;;
12059;SDS011;6091;51.432;6.880;2024-02-26T01:30:10;0.60;;;0.60;;
12059;SDS011;6091;51.432;6.880;2024-02-26T01:32:38;0.60;;;0.60;;
12059;SDS011;6091;51.432;6.880;2024-02-26T01:35:05;0.57;;;0.57;;
12059;SDS011;6091;51.432;6.880;2024-02-26T01:37:38;0.52;;;0.52;;
12059;SDS011;6091;51.432;6.880;2024-02-26T01:40:05;0.60;;;0.60;;
12059;SDS011;6091;51.432;6.880;2024-02-26T01:42:33;0.60;;;0.60;;
12059;SDS011;6091;51.432;6.880;2024-02-26T01:45:00;0.60;;;0.60;;
12059;SDS011;6091;51.432;6.880;2024-02-26T01:47:28;0.50;;;0.50;;
12059;SDS011;6091;51.432;6.880;2024-02-26T01:49:56;0.70;;;0.60;;
12059;SDS011;6091;51.432;6.880;2024-02-26T01:52:24;0.60;;;0.60;;
12059;SDS011;6091;51.432;6.880;2024-02-26T01:54:51;0.68;;;0.68;;
12059;SDS011;6091;51.432;6.880;2024-02-26T01:57:18;0.70;;;0.70;;
12059;SDS011;6091;51.432;6.880;2024-02-26T01:59:45;0.70;;;0.70;;
12059;SDS011;6091;51.432;6.880;2024-02-26T02:02:13;0.57;;;0.57;;
12059;SDS011;6091;51.432;6.880;2024-02-26T02:04:42;0.90;;;0.70;;
12059;SDS011;6091;51.432;6.880;2024-02-26T02:07:09;0.40;;;0.40;;
12059;SDS011;6091;51.432;6.880;2024-02-26T02:09:37;0.50;;;0.50;;
12059;SDS011;6091;51.432;6.880;2024-02-26T02:12:04;0.70;;;0.70;;
12059;SDS011;6091;51.432;6.880;2024-02-26T02:14:33;0.50;;;0.50;;
12059;SDS011;6091;51.432;6.880;2024-02-26T02:17:00;0.60;;;0.60;;
12059;SDS011;6091;51.432;6.880;2024-02-26T02:19:27;0.70;;;0.70;;
12059;SDS011;6091;51.432;6.880;2024-02-26T02:21:54;0.65;;;0.65;;
12059;SDS011;6091;51.432;6.880;2024-02-26T02:24:21;0.50;;;0.50;;
12059;SDS011;6091;51.432;6.880;2024-02-26T02:26:48;0.60;;;0.60;;
12059;SDS011;6091;51.432;6.880;2024-02-26T02:29:15;0.60;;;0.60;;
12059;SDS011;6091;51.432;6.880;2024-02-26T02:31:42;0.60;;;0.60;;
12059;SDS011;6091;51.432;6.880;2024-02-26T02:34:10;0.63;;;0.63;;
12059;SDS011;6091;51.432;6.880;2024-02-26T02:36:52;0.52;;;0.52;;
12059;SDS011;6091;51.432;6.880;2024-02-26T02:39:20;0.70;;;0.70;;
12059;SDS011;6091;51.432;6.880;2024-02-26T02:41:48;0.57;;;0.57;;
12059;SDS011;6091;51.432;6.880;2024-02-26T02:44:15;0.50;;;0.50;;
12059;SDS011;6091;51.432;6.880;2024-02-26T02:46:43;0.55;;;0.55;;
12059;SDS011;6091;51.432;6.880;2024-02-26T02:49:10;0.73;;;0.73;;
12059;SDS011;6091;51.432;6.880;2024-02-26T02:51:38;0.70;;;0.70;;
12059;SDS011;6091;51.432;6.880;2024-02-26T02:54:05;0.60;;;0.60;;
12059;SDS011;6091;51.432;6.880;2024-02-26T02:56:33;0.60;;;0.60;;
12059;SDS011;6091;51.432;6.880;2024-02-26T02:59:01;0.60;;;0.60;;
12059;SDS011;6091;51.432;6.880;2024-02-26T03:01:29;0.50;;;0.50;;
12059;SDS011;6091;51.432;6.880;2024-02-26T03:03:56;0.60;;;0.60;;
12059;SDS011;6091;51.432;6.880;2024-02-26T03:06:23;0.57;;;0.57;;
12059;SDS011;6091;51.432;6.880;2024-02-26T03:08:53;0.52;;;0.52;;
12059;SDS011;6091;51.432;6.880;2024-02-26T03:11:21;0.52;;;0.52;;
12059;SDS011;6091;51.432;6.880;2024-02-26T03:13:48;0.50;;;0.50;;
12059;SDS011;6091;51.432;6.880;2024-02-26T03:16:16;0.60;;;0.60;;
12059;SDS011;6091;51.432;6.880;2024-02-26T03:18:44;0.50;;;0.50;;
12059;SDS011;6091;51.432;6.880;2024-02-26T03:21:11;0.50;;;0.50;;
12059;SDS011;6091;51.432;6.880;2024-02-26T03:23:38;0.50;;;0.50;;
12059;SDS011;6091;51.432;6.880;2024-02-26T03:26:06;0.70;;;0.70;;
12059;SDS011;6091;51.432;6.880;2024-02-26T03:28:33;0.60;;;0.60;;
12059;SDS011;6091;51.432;6.880;2024-02-26T03:31:01;0.60;;;0.60;;
12059;SDS011;6091;51.432;6.880;2024-02-26T03:33:28;0.40;;;0.40;;
12059;SDS011;6091;51.432;6.880;2024-02-26T03:35:56;0.50;;;0.50;;
12059;SDS011;6091;51.432;6.880;2024-02-26T03:38:23;0.50;;;0.50;;
12059;SDS011;6091;51.432;6.880;2024-02-26T03:40:50;0.50;;;0.50;;
12059;SDS011;6091;51.432;6.880;2024-02-26T03:43:17;0.60;;;0.60;;
12059;SDS011;6091;51.432;6.880;2024-02-26T03:45:44;0.60;;;0.60;;
12059;SDS011;6091;51.432;6.880;2024-02-26T03:48:12;0.60;;;0.60;;
12059;SDS011;6091;51.432;6.880;2024-02-26T03:50:39;0.50;;;0.50;;
12059;SDS011;6091;51.432;6.880;2024-02-26T03:53:06;0.43;;;0.43;;
12059;SDS011;6091;51.432;6.880;2024-02-26T03:55:39;0.50;;;0.50;;
12059;SDS011;6091;51.432;6.880;2024-02-26T03:58:08;0.47;;;0.47;;
12059;SDS011;6091;51.432;6.880;2024-02-26T04:00:35;0.50;;;0.50;;
12059;SDS011;6091;51.432;6.880;2024-02-26T04:03:03;0.43;;;0.43;;
12059;SDS011;6091;51.432;6.880;2024-02-26T04:05:31;0.40;;;0.40;;
12059;SDS011;6091;51.432;6.880;2024-02-26T04:07:58;0.60;;;0.60;;
12059;SDS011;6091;51.432;6.880;2024-02-26T04:10:25;0.70;;;0.70;;
12059;SDS011;6091;51.432;6.880;2024-02-26T04:12:52;0.50;;;0.50;;
12059;SDS011;6091;51.432;6.880;2024-02-26T04:15:21;0.45;;;0.45;;
12059;SDS011;6091;51.432;6.880;2024-02-26T04:17:48;0.38;;;0.38;;
12059;SDS011;6091;51.432;6.880;2024-02-26T04:20:15;0.52;;;0.52;;
12059;SDS011;6091;51.432;6.880;2024-02-26T04:22:43;0.50;;;0.50;;
12059;SDS011;6091;51.432;6.880;2024-02-26T04:25:11;0.95;;;0.50;;
12059;SDS011;6091;51.432;6.880;2024-02-26T04:27:39;0.60;;;0.60;;
12059;SDS011;6091;51.432;6.880;2024-02-26T04:30:06;0.50;;;0.50;;
12059;SDS011;6091;51.432;6.880;2024-02-26T04:32:35;0.50;;;0.50;;
12059;SDS011;6091;51.432;6.880;2024-02-26T04:35:02;0.60;;;0.60;;
12059;SDS011;6091;51.432;6.880;2024-02-26T04:37:30;0.40;;;0.40;;
12059;SDS011;6091;51.432;6.880;2024-02-26T04:40:00;0.50;;;0.50;;
12059;SDS011;6091;51.432;6.880;2024-02-26T04:42:29;0.50;;;0.50;;
12059;SDS011;6091;51.432;6.880;2024-02-26T04:44:56;0.60;;;0.60;;
12059;SDS011;6091;51.432;6.880;2024-02-26T04:47:25;0.55;;;0.55;;
12059;SDS011;6091;51.432;6.880;2024-02-26T04:49:54;0.38;;;0.35;;
12059;SDS011;6091;51.432;6.880;2024-02-26T04:52:22;0.50;;;0.50;;
12059;SDS011;6091;51.432;6.880;2024-02-26T04:54:49;0.50;;;0.50;;
12059;SDS011;6091;51.432;6.880;2024-02-26T04:57:17;0.50;;;0.50;;
12059;SDS011;6091;51.432;6.880;2024-02-26T04:59:45;0.50;;;0.50;;
12059;SDS011;6091;51.432;6.880;2024-02-26T05:02:13;0.45;;;0.45;;
12059;SDS011;6091;51.432;6.880;2024-02-26T05:04:41;0.52;;;0.52;;
12059;SDS011;6091;51.432;6.880;2024-02-26T05:07:08;0.60;;;0.60;;
12059;SDS011;6091;51.432;6.880;2024-02-26T05:09:36;0.50;;;0.50;;
12059;SDS011;6091;51.432;6.880;2024-02-26T05:12:03;0.50;;;0.50;;
12059;SDS011;6091;51.432;6.880;2024-02-26T05:14:31;0.50;;;0.50;;
12059;SDS011;6091;51.432;6.880;2024-02-26T05:16:58;0.40;;;0.40;;
12059;SDS011;6091;51.432;6.880;2024-02-26T05:19:26;0.50;;;0.50;;
12059;SDS011;6091;51.432;6.880;2024-02-26T05:21:53;0.40;;;0.40;;
12059;SDS011;6091;51.432;6.880;2024-02-26T05:24:20;0.40;;;0.40;;
12059;SDS011;6091;51.432;6.880;2024-02-26T05:26:49;0.50;;;0.50;;
12059;SDS011;6091;51.432;6.880;2024-02-26T05:29:16;0.40;;;0.40;;
12059;SDS011;6091;51.432;6.880;2024-02-26T05:31:44;0.60;;;0.60;;
12059;SDS011;6091;51.432;6.880;2024-02-26T05:34:11;0.40;;;0.40;;
12059;SDS011;6091;51.432;6.880;2024-02-26T05:36:39;0.55;;;0.55;;
12059;SDS011;6091;51.432;6.880;2024-02-26T05:39:06;0.60;;;0.60;;
12059;SDS011;6091;51.432;6.880;2024-02-26T05:41:38;0.60;;;0.60;;
12059;SDS011;6091;51.432;6.880;2024-02-26T05:44:05;0.50;;;0.50;;
12059;SDS011;6091;51.432;6.880;2024-02-26T05:46:36;0.40;;;0.40;;
12059;SDS011;6091;51.432;6.880;2024-02-26T05:49:03;0.55;;;0.55;;
12059;SDS011;6091;51.432;6.880;2024-02-26T05:51:30;0.60;;;0.60;;
12059;SDS011;6091;51.432;6.880;2024-02-26T05:53:57;0.57;;;0.57;;
12059;SDS011;6091;51.432;6.880;2024-02-26T05:56:24;0.45;;;0.45;;
12059;SDS011;6091;51.432;6.880;2024-02-26T05:58:52;0.50;;;0.50;;
12059;SDS011;6091;51.432;6.880;2024-02-26T06:01:20;0.40;;;0.40;;
12059;SDS011;6091;51.432;6.880;2024-02-26T06:03:47;0.50;;;0.50;;
12059;SDS011;6091;51.432;6.880;2024-02-26T06:06:15;0.60;;;0.60;;
12059;SDS011;6091;51.432;6.880;2024-02-26T06:08:44;0.50;;;0.50;;
12059;SDS011;6091;51.432;6.880;2024-02-26T06:11:11;0.50;;;0.50;;
12059;SDS011;6091;51.432;6.880;2024-02-26T06:13:47;0.55;;;0.55;;
12059;SDS011;6091;51.432;6.880;2024-02-26T06:16:14;0.40;;;0.40;;
12059;SDS011;6091;51.432;6.880;2024-02-26T06:18:41;0.32;;;0.32;;
12059;SDS011;6091;51.432;6.880;2024-02-26T06:21:09;0.60;;;0.60;;
12059;SDS011;6091;51.432;6.880;2024-02-26T06:23:38;0.40;;;0.40;;
12059;SDS011;6091;51.432;6.880;2024-02-26T06:26:06;0.40;;;0.40;;
12059;SDS011;6091;51.432;6.880;2024-02-26T06:28:34;0.50;;;0.50;;
12059;SDS011;6091;51.432;6.880;2024-02-26T06:31:02;0.40;;;0.40;;
12059;SDS011;6091;51.432;6.880;2024-02-26T06:33:30;0.73;;;0.60;;
12059;SDS011;6091;51.432;6.880;2024-02-26T06:35:57;0.50;;;0.50;;
12059;SDS011;6091;51.432;6.880;2024-02-26T06:38:25;0.55;;;0.55;;
12059;SDS011;6091;51.432;6.880;2024-02-26T06:40:52;0.55;;;0.52;;
12059;SDS011;6091;51.432;6.880;2024-02-26T06:43:20;0.47;;;0.47;;
12059;SDS011;6091;51.432;6.880;2024-02-26T06:45:47;0.40;;;0.40;;
12059;SDS011;6091;51.432;6.880;2024-02-26T06:48:15;0.60;;;0.60;;
12059;SDS011;6091;51.432;6.880;2024-02-26T06:50:43;0.55;;;0.55;;
12059;SDS011;6091;51.432;6.880;2024-02-26T06:53:10;0.60;;;0.60;;
12059;SDS011;6091;51.432;6.880;2024-02-26T06:55:37;0.60;;;0.60;;
12059;SDS011;6091;51.432;6.880;2024-02-26T06:58:06;0.57;;;0.57;;
12059;SDS011;6091;51.432;6.880;2024-02-26T07:00:34;0.50;;;0.50;;
12059;SDS011;6091;51.432;6.880;2024-02-26T07:03:03;0.50;;;0.50;;
12059;SDS011;6091;51.432;6.880;2024-02-26T07:05:30;0.50;;;0.50;;
12059;SDS011;6091;51.432;6.880;2024-02-26T07:07:58;0.60;;;0.60;;
12059;SDS011;6091;51.432;6.880;2024-02-26T07:10:25;2.25;;;0.60;;
12059;SDS011;6091;51.432;6.880;2024-02-26T07:12:52;0.82;;;0.70;;
12059;SDS011;6091;51.432;6.880;2024-02-26T07:15:19;0.67;;;0.67;;
12059;SDS011;6091;51.432;6.880;2024-02-26T07:17:47;1.58;;;0.60;;
12059;SDS011;6091;51.432;6.880;2024-02-26T07:32:45;1.20;;;0.75;;
12059;SDS011;6091;51.432;6.880;2024-02-26T07:35:16;0.60;;;0.60;;
12059;SDS011;6091;51.432;6.880;2024-02-26T07:37:44;1.05;;;0.70;;
12059;SDS011;6091;51.432;6.880;2024-02-26T07:40:15;1.73;;;0.70;;
12059;SDS011;6091;51.432;6.880;2024-02-26T07:42:42;5.97;;;0.80;;
12059;SDS011;6091;51.432;6.880;2024-02-26T07:45:10;1.13;;;0.70;;
12059;SDS011;6091;51.432;6.880;2024-02-26T07:47:37;0.73;;;0.50;;
12059;SDS011;6091;51.432;6.880;2024-02-26T07:50:07;1.55;;;0.80;;
12059;SDS011;6091;51.432;6.880;2024-02-26T07:52:35;1.13;;;0.70;;
12059;SDS011;6091;51.432;6.880;2024-02-26T07:55:03;1.17;;;0.80;;
12059;SDS011;6091;51.432;6.880;2024-02-26T07:57:33;2.47;;;1.00;;
12059;SDS011;6091;51.432;6.880;2024-02-26T08:00:01;0.77;;;0.63;;
12059;SDS011;6091;51.432;6.880;2024-02-26T08:02:31;0.90;;;0.68;;
12059;SDS011;6091;51.432;6.880;2024-02-26T08:05:00;0.57;;;0.57;;
12059;SDS011;6091;51.432;6.880;2024-02-26T08:07:28;0.80;;;0.60;;
12059;SDS011;6091;51.432;6.880;2024-02-26T08:09:55;0.82;;;0.60;;
12059;SDS011;6091;51.432;6.880;2024-02-26T08:12:22;1.67;;;0.60;;
12059;SDS011;6091;51.432;6.880;2024-02-26T08:14:50;1.55;;;0.60;;
12059;SDS011;6091;51.432;6.880;2024-02-26T08:17:20;1.23;;;0.70;;
12059;SDS011;6091;51.432;6.880;2024-02-26T08:19:49;1.17;;;0.50;;
12059;SDS011;6091;51.432;6.880;2024-02-26T08:22:17;0.70;;;0.57;;
12059;SDS011;6091;51.432;6.880;2024-02-26T08:24:44;0.70;;;0.70;;
12059;SDS011;6091;51.432;6.880;2024-02-26T08:27:11;0.60;;;0.60;;
12059;SDS011;6091;51.432;6.880;2024-02-26T08:29:39;1.95;;;0.80;;
12059;SDS011;6091;51.432;6.880;2024-02-26T08:32:06;0.90;;;0.70;;
12059;SDS011;6091;51.432;6.880;2024-02-26T08:34:33;0.85;;;0.68;;
12059;SDS011;6091;51.432;6.880;2024-02-26T08:37:02;0.65;;;0.60;;
12059;SDS011;6091;51.432;6.880;2024-02-26T08:39:30;0.93;;;0.70;;
12059;SDS011;6091;51.432;6.880;2024-02-26T08:41:57;1.33;;;0.65;;
12059;SDS011;6091;51.432;6.880;2024-02-26T08:44:24;0.90;;;0.70;;
12059;SDS011;6091;51.432;6.880;2024-02-26T08:46:52;0.75;;;0.70;;
12059;SDS011;6091;51.432;6.880;2024-02-26T08:49:20;1.98;;;0.65;;
12059;SDS011;6091;51.432;6.880;2024-02-26T08:51:51;1.48;;;0.73;;
12059;SDS011;6091;51.432;6.880;2024-02-26T08:54:18;0.98;;;0.75;;
12059;SDS011;6091;51.432;6.880;2024-02-26T08:56:46;1.23;;;0.77;;
12059;SDS011;6091;51.432;6.880;2024-02-26T08:59:13;1.67;;;0.82;;
12059;SDS011;6091;51.432;6.880;2024-02-26T09:01:42;2.10;;;0.90;;
12059;SDS011;6091;51.432;6.880;2024-02-26T09:04:11;1.17;;;0.90;;
12059;SDS011;6091;51.432;6.880;2024-02-26T09:06:41;1.13;;;0.73;;
12059;SDS011;6091;51.432;6.880;2024-02-26T09:09:30;1.13;;;0.73;;
12059;SDS011;6091;51.432;6.880;2024-02-26T09:11:57;0.80;;;0.80;;
12059;SDS011;6091;51.432;6.880;2024-02-26T09:14:25;3.20;;;1.13;;
12059;SDS011;6091;51.432;6.880;2024-02-26T09:16:54;0.85;;;0.70;;
12059;SDS011;6091;51.432;6.880;2024-02-26T09:19:21;1.70;;;0.95;;
12059;SDS011;6091;51.432;6.880;2024-02-26T09:21:50;0.90;;;0.73;;
12059;SDS011;6091;51.432;6.880;2024-02-26T09:24:18;1.13;;;0.90;;
12059;SDS011;6091;51.432;6.880;2024-02-26T09:26:45;1.65;;;0.73;;
12059;SDS011;6091;51.432;6.880;2024-02-26T09:29:12;2.72;;;1.13;;
12059;SDS011;6091;51.432;6.880;2024-02-26T09:31:39;0.88;;;0.60;;
12059;SDS011;6091;51.432;6.880;2024-02-26T09:34:08;2.03;;;0.63;;
12059;SDS011;6091;51.432;6.880;2024-02-26T09:36:35;1.05;;;0.70;;
12059;SDS011;6091;51.432;6.880;2024-02-26T09:39:04;2.03;;;0.88;;
12059;SDS011;6091;51.432;6.880;2024-02-26T09:41:31;1.42;;;0.80;;
12059;SDS011;6091;51.432;6.880;2024-02-26T09:43:58;1.27;;;0.80;;
12059;SDS011;6091;51.432;6.880;2024-02-26T09:46:30;0.90;;;0.63;;
12059;SDS011;6091;51.432;6.880;2024-02-26T09:48:58;1.50;;;0.90;;
12059;SDS011;6091;51.432;6.880;2024-02-26T09:51:26;1.20;;;0.70;;
12059;SDS011;6091;51.432;6.880;2024-02-26T09:53:56;0.75;;;0.75;;
12059;SDS011;6091;51.432;6.880;2024-02-26T09:56:31;1.48;;;0.75;;
12059;SDS011;6091;51.432;6.880;2024-02-26T09:58:59;0.60;;;0.60;;
12059;SDS011;6091;51.432;6.880;2024-02-26T10:01:30;1.83;;;0.82;;
12059;SDS011;6091;51.432;6.880;2024-02-26T10:04:00;1.00;;;0.70;;
12059;SDS011;6091;51.432;6.880;2024-02-26T10:06:29;1.20;;;0.75;;
12059;SDS011;6091;51.432;6.880;2024-02-26T10:08:57;0.70;;;0.60;;
12059;SDS011;6091;51.432;6.880;2024-02-26T10:11:27;1.20;;;0.70;;
12059;SDS011;6091;51.432;6.880;2024-02-26T10:13:59;0.75;;;0.68;;
12059;SDS011;6091;51.432;6.880;2024-02-26T10:16:26;0.93;;;0.82;;
12059;SDS011;6091;51.432;6.880;2024-02-26T10:18:55;1.10;;;0.80;;
12059;SDS011;6091;51.432;6.880;2024-02-26T10:21:25;1.52;;;0.80;;
12059;SDS011;6091;51.432;6.880;2024-02-26T10:23:54;0.80;;;0.73;;
12059;SDS011;6091;51.432;6.880;2024-02-26T10:26:22;3.80;;;1.20;;
12059;SDS011;6091;51.432;6.880;2024-02-26T10:28:49;1.75;;;0.82;;
12059;SDS011;6091;51.432;6.880;2024-02-26T10:31:21;1.98;;;0.90;;
12059;SDS011;6091;51.432;6.880;2024-02-26T10:33:48;3.28;;;0.82;;
12059;SDS011;6091;51.432;6.880;2024-02-26T10:36:17;1.25;;;0.85;;
12059;SDS011;6091;51.432;6.880;2024-02-26T10:38:45;2.00;;;0.90;;
12059;SDS011;6091;51.432;6.880;2024-02-26T10:41:14;1.95;;;0.80;;
12059;SDS011;6091;51.432;6.880;2024-02-26T10:43:42;0.98;;;0.70;;
12059;SDS011;6091;51.432;6.880;2024-02-26T10:46:11;4.45;;;1.25;;
12059;SDS011;6091;51.432;6.880;2024-02-26T10:48:39;1.20;;;0.82;;
12059;SDS011;6091;51.432;6.880;2024-02-26T10:51:08;1.42;;;0.82;;
12059;SDS011;6091;51.432;6.880;2024-02-26T10:53:40;1.70;;;0.80;;
12059;SDS011;6091;51.432;6.880;2024-02-26T10:56:14;0.75;;;0.63;;
12059;SDS011;6091;51.432;6.880;2024-02-26T10:58:45;0.93;;;0.63;;
12059;SDS011;6091;51.432;6.880;2024-02-26T11:01:13;1.77;;;1.45;;
12059;SDS011;6091;51.432;6.880;2024-02-26T11:03:41;0.85;;;0.70;;
12059;SDS011;6091;51.432;6.880;2024-02-26T11:06:09;1.10;;;0.85;;
12059;SDS011;6091;51.432;6.880;2024-02-26T11:08:39;2.53;;;0.90;;
12059;SDS011;6091;51.432;6.880;2024-02-26T11:11:08;1.20;;;1.00;;
12059;SDS011;6091;51.432;6.880;2024-02-26T11:13:37;1.33;;;0.80;;
12059;SDS011;6091;51.432;6.880;2024-02-26T11:16:09;1.60;;;0.93;;
12059;SDS011;6091;51.432;6.880;2024-02-26T11:18:39;3.63;;;1.00;;
12059;SDS011;6091;51.432;6.880;2024-02-26T11:21:10;0.93;;;0.90;;
12059;SDS011;6091;51.432;6.880;2024-02-26T11:23:42;1.40;;;0.80;;
12059;SDS011;6091;51.432;6.880;2024-02-26T11:26:11;2.00;;;1.40;;
12059;SDS011;6091;51.432;6.880;2024-02-26T11:28:42;0.90;;;0.85;;
12059;SDS011;6091;51.432;6.880;2024-02-26T11:31:12;1.30;;;0.88;;
12059;SDS011;6091;51.432;6.880;2024-02-26T11:33:40;1.38;;;0.60;;
12059;SDS011;6091;51.432;6.880;2024-02-26T11:36:11;1.27;;;0.90;;
12059;SDS011;6091;51.432;6.880;2024-02-26T11:38:40;1.65;;;1.00;;
12059;SDS011;6091;51.432;6.880;2024-02-26T11:41:07;1.13;;;1.00;;
12059;SDS011;6091;51.432;6.880;2024-02-26T11:43:51;2.97;;;1.20;;
12059;SDS011;6091;51.432;6.880;2024-02-26T11:46:29;1.50;;;1.00;;
12059;SDS011;6091;51.432;6.880;2024-02-26T11:51:51;1.35;;;0.80;;
12059;SDS011;6091;51.432;6.880;2024-02-26T12:05:19;1.30;;;1.00;;
12059;SDS011;6091;51.432;6.880;2024-02-26T12:07:54;1.75;;;0.90;;
12059;SDS011;6091;51.432;6.880;2024-02-26T12:10:38;2.38;;;1.00;;
12059;SDS011;6091;51.432;6.880;2024-02-26T12:13:16;2.60;;;0.98;;
12059;SDS011;6091;51.432;6.880;2024-02-26T12:15:56;1.75;;;0.80;;
12059;SDS011;6091;51.432;6.880;2024-02-26T12:18:27;1.83;;;1.08;;
12059;SDS011;6091;51.432;6.880;2024-02-26T12:21:01;1.73;;;0.90;;
12059;SDS011;6091;51.432;6.880;2024-02-26T12:23:31;1.02;;;0.93;;
12059;SDS011;6091;51.432;6.880;2024-02-26T12:25:59;2.00;;;1.20;;
12059;SDS011;6091;51.432;6.880;2024-02-26T12:28:32;1.75;;;1.00;;
12059;SDS011;6091;51.432;6.880;2024-02-26T12:31:00;4.35;;;1.30;;
12059;SDS011;6091;51.432;6.880;2024-02-26T12:33:28;2.17;;;1.00;;
12059;SDS011;6091;51.432;6.880;2024-02-26T12:35:58;3.17;;;1.30;;
12059;SDS011;6091;51.432;6.880;2024-02-26T12:38:26;1.77;;;0.77;;
12059;SDS011;6091;51.432;6.880;2024-02-26T12:40:54;1.48;;;1.02;;
12059;SDS011;6091;51.432;6.880;2024-02-26T12:43:22;2.22;;;0.93;;
12059;SDS011;6091;51.432;6.880;2024-02-26T12:45:50;0.98;;;0.77;;
12059;SDS011;6091;51.432;6.880;2024-02-26T12:48:18;1.30;;;1.00;;
12059;SDS011;6091;51.432;6.880;2024-02-26T12:50:47;1.42;;;0.90;;
12059;SDS011;6091;51.432;6.880;2024-02-26T12:53:15;2.53;;;0.93;;
12059;SDS011;6091;51.432;6.880;2024-02-26T12:55:43;3.20;;;1.10;;
12059;SDS011;6091;51.432;6.880;2024-02-26T12:58:12;2.55;;;1.00;;
12059;SDS011;6091;51.432;6.880;2024-02-26T13:00:41;1.90;;;1.00;;
12059;SDS011;6091;51.432;6.880;2024-02-26T13:03:12;1.58;;;0.90;;
12059;SDS011;6091;51.432;6.880;2024-02-26T13:05:40;1.55;;;0.90;;
12059;SDS011;6091;51.432;6.880;2024-02-26T13:08:09;1.95;;;1.02;;
12059;SDS011;6091;51.432;6.880;2024-02-26T13:10:45;2.20;;;0.90;;
12059;SDS011;6091;51.432;6.880;2024-02-26T13:13:17;0.93;;;0.88;;
12059;SDS011;6091;51.432;6.880;2024-02-26T13:15:46;1.30;;;0.80;;
12059;SDS011;6091;51.432;6.880;2024-02-26T13:18:15;0.82;;;0.80;;
12059;SDS011;6091;51.432;6.880;2024-02-26T13:20:43;2.85;;;1.40;;
12059;SDS011;6091;51.432;6.880;2024-02-26T13:23:11;1.30;;;0.90;;
12059;SDS011;6091;51.432;6.880;2024-02-26T13:25:40;0.80;;;0.80;;
12059;SDS011;6091;51.432;6.880;2024-02-26T13:28:15;0.80;;;0.80;;
12059;SDS011;6091;51.432;6.880;2024-02-26T13:30:51;1.00;;;0.90;;
12059;SDS011;6091;51.432;6.880;2024-02-26T13:33:24;1.13;;;0.93;;
12059;SDS011;6091;51.432;6.880;2024-02-26T13:35:54;1.88;;;0.90;;
12059;SDS011;6091;51.432;6.880;2024-02-26T13:38:23;1.80;;;1.00;;
12059;SDS011;6091;51.432;6.880;2024-02-26T13:40:51;1.58;;;0.90;;
12059;SDS011;6091;51.432;6.880;2024-02-26T13:43:20;1.35;;;0.80;;
12059;SDS011;6091;51.432;6.880;2024-02-26T13:45:48;0.80;;;0.80;;
12059;SDS011;6091;51.432;6.880;2024-02-26T13:48:17;2.63;;;0.90;;
12059;SDS011;6091;51.432;6.880;2024-02-26T13:50:45;1.00;;;0.90;;
12059;SDS011;6091;51.432;6.880;2024-02-26T13:53:13;1.17;;;1.00;;
12059;SDS011;6091;51.432;6.880;2024-02-26T13:55:41;1.85;;;1.20;;
12059;SDS011;6091;51.432;6.880;2024-02-26T13:58:13;2.13;;;1.27;;
12059;SDS011;6091;51.432;6.880;2024-02-26T14:00:42;2.22;;;1.33;;
12059;SDS011;6091;51.432;6.880;2024-02-26T14:03:10;2.17;;;1.20;;
12059;SDS011;6091;51.432;6.880;2024-02-26T14:05:38;1.95;;;1.17;;
12059;SDS011;6091;51.432;6.880;2024-02-26T14:08:08;2.03;;;1.65;;
12059;SDS011;6091;51.432;6.880;2024-02-26T14:10:36;2.03;;;1.00;;
12059;SDS011;6091;51.432;6.880;2024-02-26T14:13:04;1.50;;;1.25;;
12059;SDS011;6091;51.432;6.880;2024-02-26T14:15:33;1.67;;;1.17;;
12059;SDS011;6091;51.432;6.880;2024-02-26T14:18:02;1.98;;;0.90;;
12059;SDS011;6091;51.432;6.880;2024-02-26T14:20:31;3.20;;;1.58;;
12059;SDS011;6091;51.432;6.880;2024-02-26T14:23:01;1.92;;;1.60;;
12059;SDS011;6091;51.432;6.880;2024-02-26T14:25:30;1.85;;;1.50;;
12059;SDS011;6091;51.432;6.880;2024-02-26T14:27:58;1.65;;;1.20;;
12059;SDS011;6091;51.432;6.880;2024-02-26T14:30:26;1.60;;;1.25;;
12059;SDS011;6091;51.432;6.880;2024-02-26T14:32:54;1.73;;;1.30;;
12059;SDS011;6091;51.432;6.880;2024-02-26T14:35:22;2.38;;;1.20;;
12059;SDS011;6091;51.432;6.880;2024-02-26T14:37:53;1.20;;;1.10;;
12059;SDS011;6091;51.432;6.880;2024-02-26T14:40:22;2.58;;;1.40;;
12059;SDS011;6091;51.432;6.880;2024-02-26T14:42:50;2.28;;;1.55;;
12059;SDS011;6091;51.432;6.880;2024-02-26T14:45:17;2.85;;;1.42;;
12059;SDS011;6091;51.432;6.880;2024-02-26T14:47:46;3.75;;;1.80;;
12059;SDS011;6091;51.432;6.880;2024-02-26T14:50:14;2.08;;;1.48;;
12059;SDS011;6091;51.432;6.880;2024-02-26T14:52:42;2.33;;;1.42;;
12059;SDS011;6091;51.432;6.880;2024-02-26T14:55:10;1.42;;;1.33;;
12059;SDS011;6091;51.432;6.880;2024-02-26T14:57:37;2.13;;;1.38;;
12059;SDS011;6091;51.432;6.880;2024-02-26T15:00:05;2.78;;;1.20;;
12059;SDS011;6091;51.432;6.880;2024-02-26T15:02:34;2.03;;;1.40;;
12059;SDS011;6091;51.432;6.880;2024-02-26T15:05:04;4.43;;;1.45;;
12059;SDS011;6091;51.432;6.880;2024-02-26T15:07:34;2.90;;;1.55;;
12059;SDS011;6091;51.432;6.880;2024-02-26T15:10:04;3.92;;;2.10;;
12059;SDS011;6091;51.432;6.880;2024-02-26T15:12:33;2.33;;;1.67;;
12059;SDS011;6091;51.432;6.880;2024-02-26T15:15:02;2.70;;;1.50;;
12059;SDS011;6091;51.432;6.880;2024-02-26T15:17:31;4.50;;;1.50;;
12059;SDS011;6091;51.432;6.880;2024-02-26T15:20:01;3.00;;;1.20;;
12059;SDS011;6091;51.432;6.880;2024-02-26T15:22:36;2.42;;;1.75;;
12059;SDS011;6091;51.432;6.880;2024-02-26T15:25:04;3.15;;;1.23;;
12059;SDS011;6091;51.432;6.880;2024-02-26T15:27:37;4.38;;;1.40;;
12059;SDS011;6091;51.432;6.880;2024-02-26T15:30:05;2.97;;;1.73;;
12059;SDS011;6091;51.432;6.880;2024-02-26T15:32:33;3.10;;;1.60;;
12059;SDS011;6091;51.432;6.880;2024-02-26T15:35:02;1.92;;;1.42;;